Time;durP1;ratioP1;P1;durP2;ratioP2;P2;SDS_P1;SDS_P2;PMS_P1;PMS_P2;Temp;Humidity;BMP_temperature;BMP_pressure;BME280_temperature;BME280_humidity;BME280_pressure;Samples;Min_cycle;Max_cycle;Signal;HPM_P1;HPM_P2
2022/09/15 00:00:24;;;;;;;2.00;1.08;;;22.50;86.50;;;;;;4998526;28;20188;-69
2022/09/15 00:02:50;;;;;;;1.52;0.90;;;22.40;86.30;;;;;;5015337;28;20319;-69
2022/09/15 00:05:16;;;;;;;1.10;1.00;;;22.40;86.20;;;;;;4999072;28;20220;-69
2022/09/15 00:07:41;;;;;;;0.80;0.70;;;22.50;86.30;;;;;;5015004;28;20188;-70
2022/09/15 00:10:09;;;;;;;2.78;0.93;;;22.50;86.10;;;;;;5015068;28;20184;-69
2022/09/15 00:12:34;;;;;;;1.13;1.00;;;22.50;86.00;;;;;;5002068;28;20187;-69
2022/09/15 00:15:00;;;;;;;1.20;1.00;;;22.50;86.10;;;;;;5002340;28;20389;-69
2022/09/15 00:17:26;;;;;;;0.73;0.70;;;22.50;86.00;;;;;;5002527;28;20610;-69
2022/09/15 00:19:52;;;;;;;0.85;0.85;;;22.50;86.00;;;;;;5003199;28;20223;-69
2022/09/15 00:22:19;;;;;;;1.02;0.88;;;22.50;86.80;;;;;;5003053;28;20223;-69
2022/09/15 00:24:48;;;;;;;0.85;0.82;;;22.40;85.90;;;;;;5002390;28;20180;-69
2022/09/15 00:27:15;;;;;;;1.00;0.95;;;22.50;85.90;;;;;;5002981;28;20200;-70
2022/09/15 00:29:42;;;;;;;1.88;0.90;;;22.50;86.00;;;;;;5019203;28;20195;-69
2022/09/15 00:32:08;;;;;;;1.05;0.90;;;22.50;86.00;;;;;;5019029;28;20218;-69
2022/09/15 00:34:34;;;;;;;1.02;0.82;;;22.50;86.00;;;;;;5002130;28;20188;-69
2022/09/15 00:36:59;;;;;;;0.93;0.90;;;22.50;86.00;;;;;;5002611;28;20184;-69
2022/09/15 00:39:25;;;;;;;0.80;0.80;;;22.50;86.00;;;;;;5003013;28;20188;-69
2022/09/15 00:41:51;;;;;;;0.80;0.80;;;22.50;86.00;;;;;;5002394;28;20255;-70
2022/09/15 00:44:35;;;;;;;1.50;0.80;;;22.50;86.00;;;;;;5001962;28;20173;-69
2022/09/15 00:47:03;;;;;;;0.80;0.80;;;22.40;85.80;;;;;;5002178;28;20181;-69
2022/09/15 00:49:35;;;;;;;1.58;0.90;;;22.40;85.80;;;;;;5002043;28;20184;-70
2022/09/15 00:52:22;;;;;;;1.70;0.85;;;22.40;85.70;;;;;;5002447;28;20343;-69
2022/09/15 00:55:07;;;;;;;0.80;0.80;;;22.40;85.70;;;;;;5002113;28;20195;-69
2022/09/15 00:57:48;;;;;;;1.05;0.73;;;22.40;85.60;;;;;;5002309;28;20256;-70
2022/09/15 01:00:19;;;;;;;0.93;0.70;;;22.40;85.50;;;;;;5001721;28;20641;-69
2022/09/15 01:02:47;;;;;;;1.30;0.70;;;22.40;85.50;;;;;;5001444;28;20203;-70
2022/09/15 01:05:17;;;;;;;0.80;0.80;;;22.40;85.50;;;;;;5001910;28;20184;-69
2022/09/15 01:07:54;;;;;;;1.00;0.85;;;22.40;85.60;;;;;;5002135;28;20279;-70
2022/09/15 01:10:38;;;;;;;1.65;1.10;;;22.40;85.50;;;;;;5001987;28;20251;-70
2022/09/15 01:13:09;;;;;;;1.10;1.00;;;22.40;85.50;;;;;;5018510;28;20180;-69
2022/09/15 01:15:48;;;;;;;1.60;0.70;;;22.40;85.40;;;;;;5029919;28;20183;-69
2022/09/15 01:18:49;;;;;;;0.85;0.77;;;22.40;85.40;;;;;;5021871;28;20191;-69
2022/09/15 01:21:41;;;;;;;1.00;0.80;;;22.40;85.40;;;;;;5021133;28;20219;-70
2022/09/15 01:24:57;;;;;;;1.20;0.90;;;22.40;85.50;;;;;;5020709;28;20273;-70
2022/09/15 01:27:51;;;;;;;1.23;1.10;;;22.40;85.30;;;;;;5021172;28;20203;-70
2022/09/15 01:30:22;;;;;;;1.65;0.80;;;22.40;85.30;;;;;;5020979;28;20179;-69
2022/09/15 01:33:13;;;;;;;0.77;0.77;;;22.40;85.20;;;;;;5037492;28;20191;-69
2022/09/15 01:36:10;;;;;;;0.80;0.80;;;22.40;85.20;;;;;;5021755;28;20191;-70
2022/09/15 01:38:59;;;;;;;0.80;0.65;;;22.40;85.10;;;;;;5038097;28;20191;-70
2022/09/15 01:41:55;;;;;;;0.80;0.80;;;22.40;85.10;;;;;;5020932;28;20268;-69
2022/09/15 01:44:27;;;;;;;0.80;0.80;;;22.40;85.10;;;;;;5037320;28;20635;-70
2022/09/15 01:47:04;;;;;;;0.85;0.70;;;22.40;85.00;;;;;;5037772;28;20639;-70
2022/09/15 01:49:39;;;;;;;0.75;0.70;;;22.40;85.00;;;;;;5037035;28;20190;-70
2022/09/15 01:52:06;;;;;;;1.00;0.73;;;22.40;85.00;;;;;;5038278;28;20211;-69
2022/09/15 01:54:41;;;;;;;1.13;1.10;;;22.40;85.00;;;;;;5040468;28;20210;-69
2022/09/15 01:57:07;;;;;;;1.15;0.88;;;22.40;85.00;;;;;;5036933;28;20197;-69
2022/09/15 01:59:33;;;;;;;0.80;0.80;;;22.40;84.90;;;;;;5036797;28;20195;-69
2022/09/15 02:02:23;;;;;;;0.80;0.80;;;22.40;84.90;;;;;;5020028;28;20218;-69
2022/09/15 02:04:57;;;;;;;1.92;0.90;;;22.40;84.90;;;;;;5036739;28;20647;-69
2022/09/15 02:07:47;;;;;;;0.70;0.70;;;22.40;84.80;;;;;;5019895;28;20179;-69
2022/09/15 02:10:28;;;;;;;1.00;1.00;;;22.40;84.90;;;;;;5036164;28;20544;-69
2022/09/15 02:13:15;;;;;;;1.77;0.88;;;22.40;84.80;;;;;;5016734;28;20191;-69
2022/09/15 02:15:56;;;;;;;1.67;0.70;;;22.40;84.80;;;;;;5031398;28;20198;-69
2022/09/15 02:19:09;;;;;;;1.13;0.75;;;22.40;84.70;;;;;;5020518;28;20274;-70
2022/09/15 02:22:06;;;;;;;1.00;0.90;;;22.40;84.70;;;;;;5002621;28;20231;-69
2022/09/15 02:24:41;;;;;;;1.27;0.70;;;22.40;84.70;;;;;;5019836;28;20183;-69
2022/09/15 02:27:16;;;;;;;0.98;0.95;;;22.40;84.50;;;;;;5027436;28;20179;-69
2022/09/15 02:29:47;;;;;;;0.60;0.60;;;22.40;84.50;;;;;;5019683;28;20183;-69
2022/09/15 02:32:18;;;;;;;0.70;0.70;;;22.40;84.40;;;;;;5020207;28;20207;-70
2022/09/15 02:34:50;;;;;;;2.88;0.90;;;22.40;84.50;;;;;;5019567;28;20186;-69
2022/09/15 02:37:20;;;;;;;1.00;0.90;;;22.40;84.50;;;;;;5019982;28;20195;-69
2022/09/15 02:39:53;;;;;;;0.70;0.70;;;22.40;84.50;;;;;;5035583;28;20246;-69
2022/09/15 02:42:28;;;;;;;1.50;0.95;;;22.40;84.50;;;;;;5035907;28;20218;-69
2022/09/15 02:44:55;;;;;;;0.98;0.75;;;22.40;84.50;;;;;;5019443;28;20179;-69
2022/09/15 02:47:22;;;;;;;0.75;0.75;;;22.40;84.40;;;;;;5020077;28;20176;-69
2022/09/15 02:49:48;;;;;;;0.90;0.80;;;22.40;84.40;;;;;;5019612;28;20198;-69
2022/09/15 02:52:14;;;;;;;1.25;0.70;;;22.40;84.30;;;;;;5019219;28;20214;-70
2022/09/15 02:54:40;;;;;;;0.77;0.77;;;22.40;84.30;;;;;;5035640;28;20187;-69
2022/09/15 02:57:06;;;;;;;1.08;0.90;;;22.40;84.30;;;;;;5019196;28;20194;-69
2022/09/15 03:02:19;;;;;;;1.17;0.90;;;22.40;84.20;;;;;;5035202;28;20227;-70
2022/09/15 03:04:46;;;;;;;0.60;0.60;;;22.40;84.20;;;;;;5018536;28;20175;-69
2022/09/15 03:07:12;;;;;;;0.70;0.70;;;22.40;84.10;;;;;;5018733;28;20182;-70
2022/09/15 03:09:37;;;;;;;0.93;0.70;;;22.40;84.20;;;;;;5034996;28;20189;-69
2022/09/15 03:12:04;;;;;;;1.00;0.82;;;22.40;84.10;;;;;;5035632;28;20294;-70
2022/09/15 03:14:31;;;;;;;0.70;0.70;;;22.40;84.20;;;;;;5035091;28;20187;-69
2022/09/15 03:16:59;;;;;;;1.02;0.70;;;22.40;84.20;;;;;;5034701;28;20179;-70
2022/09/15 03:19:25;;;;;;;0.82;0.82;;;22.40;84.20;;;;;;5018711;28;20203;-69
2022/09/15 03:21:51;;;;;;;1.13;0.95;;;22.40;84.10;;;;;;5035831;28;20211;-69
2022/09/15 03:24:32;;;;;;;0.80;0.80;;;22.40;84.10;;;;;;5073157;28;20557;-68
2022/09/15 03:26:58;;;;;;;1.02;0.95;;;22.40;84.20;;;;;;5052015;28;20178;-68
2022/09/15 03:29:24;;;;;;;0.60;0.60;;;22.40;84.10;;;;;;5052035;28;20265;-68
2022/09/15 03:31:50;;;;;;;0.95;0.90;;;22.40;84.10;;;;;;5068546;28;20202;-69
2022/09/15 03:34:16;;;;;;;0.75;0.75;;;22.40;84.50;;;;;;5067910;28;20198;-68
2022/09/15 03:36:42;;;;;;;0.95;0.73;;;22.40;84.30;;;;;;5052207;28;20182;-68
2022/09/15 03:39:10;;;;;;;0.93;0.93;;;22.40;83.90;;;;;;5085371;28;20270;-68
2022/09/15 03:41:36;;;;;;;0.63;0.63;;;22.40;84.20;;;;;;5052793;28;20194;-68
2022/09/15 03:44:02;;;;;;;0.95;0.75;;;22.40;83.90;;;;;;5085085;28;20217;-68
2022/09/15 03:46:28;;;;;;;0.77;0.77;;;22.40;84.20;;;;;;5051937;28;20286;-68
2022/09/15 03:48:54;;;;;;;0.70;0.70;;;22.40;84.20;;;;;;5052577;28;20207;-68
2022/09/15 03:51:20;;;;;;;1.05;0.90;;;22.40;83.90;;;;;;5051825;28;20221;-68
2022/09/15 03:53:46;;;;;;;1.77;0.90;;;22.40;83.90;;;;;;5050703;28;20232;-68
2022/09/15 03:56:30;;;;;;;0.73;0.60;;;22.40;83.80;;;;;;5051381;28;20211;-68
2022/09/15 03:58:57;;;;;;;1.08;0.70;;;22.40;83.80;;;;;;5051364;28;20194;-68
2022/09/15 04:01:23;;;;;;;0.80;0.80;;;22.40;83.60;;;;;;5067690;28;20202;-68
2022/09/15 04:03:49;;;;;;;0.80;0.80;;;22.40;83.60;;;;;;5050908;28;20308;-68
2022/09/15 04:06:17;;;;;;;0.80;0.80;;;22.40;83.50;;;;;;5050297;28;20186;-68
2022/09/15 04:08:43;;;;;;;0.70;0.70;;;22.40;83.50;;;;;;5067822;28;20174;-68
2022/09/15 04:11:12;;;;;;;1.00;0.90;;;22.40;83.50;;;;;;5036262;28;20202;-68
2022/09/15 04:13:39;;;;;;;1.10;0.70;;;22.40;83.50;;;;;;5050288;28;20244;-68
2022/09/15 04:16:11;;;;;;;0.70;0.70;;;22.40;83.50;;;;;;5051193;28;20194;-68
2022/09/15 04:18:38;;;;;;;0.70;0.70;;;22.40;83.50;;;;;;5051232;28;20174;-68
2022/09/15 04:21:12;;;;;;;1.05;0.80;;;22.40;83.40;;;;;;5052399;28;20203;-68
2022/09/15 04:23:39;;;;;;;0.70;0.70;;;22.40;83.40;;;;;;5051890;28;20210;-69
2022/09/15 04:26:22;;;;;;;0.90;0.90;;;22.40;83.50;;;;;;5067192;28;20762;-68
2022/09/15 04:28:47;;;;;;;1.08;0.95;;;22.40;83.30;;;;;;5050620;28;20179;-68
2022/09/15 04:31:16;;;;;;;0.90;0.90;;;22.40;83.30;;;;;;5052014;28;20207;-68
2022/09/15 04:33:43;;;;;;;0.77;0.77;;;22.40;83.30;;;;;;5051820;28;20210;-68
2022/09/15 04:36:13;;;;;;;0.70;0.70;;;22.40;83.30;;;;;;5053733;28;20202;-68
2022/09/15 04:42:46;;;;;;;0.80;0.80;;;22.40;83.70;;;;;;5036290;28;20277;-68
2022/09/15 04:45:12;;;;;;;0.70;0.70;;;22.40;83.30;;;;;;5038007;28;20210;-68
2022/09/15 04:47:38;;;;;;;0.75;0.75;;;22.40;83.30;;;;;;5038809;28;20179;-68
2022/09/15 04:50:04;;;;;;;0.82;0.60;;;22.40;83.30;;;;;;5037895;28;20246;-68
2022/09/15 04:52:30;;;;;;;0.73;0.73;;;22.40;83.30;;;;;;5038936;28;20230;-68
2022/09/15 04:54:56;;;;;;;1.10;1.00;;;22.30;83.30;;;;;;5054392;28;20354;-68
2022/09/15 04:57:21;;;;;;;1.38;0.80;;;22.40;83.30;;;;;;5038035;28;20191;-68
2022/09/15 04:59:47;;;;;;;0.70;0.70;;;22.30;83.10;;;;;;5037728;28;20191;-68
2022/09/15 05:02:13;;;;;;;0.70;0.70;;;22.40;83.30;;;;;;5054317;28;20218;-68
2022/09/15 05:04:39;;;;;;;0.90;0.85;;;22.40;83.20;;;;;;5053510;28;20187;-68
2022/09/15 05:07:04;;;;;;;0.70;0.70;;;22.40;83.10;;;;;;5037112;28;20191;-68
2022/09/15 05:09:30;;;;;;;0.90;0.90;;;22.40;83.10;;;;;;5053865;28;20250;-68
2022/09/15 05:11:56;;;;;;;0.95;0.80;;;22.40;83.30;;;;;;5037998;28;20213;-68
2022/09/15 05:14:22;;;;;;;0.70;0.60;;;22.40;83.30;;;;;;5036175;28;20184;-68
2022/09/15 05:16:48;;;;;;;0.80;0.70;;;22.40;83.30;;;;;;5035699;28;20187;-68
2022/09/15 05:19:13;;;;;;;0.85;0.73;;;22.40;83.30;;;;;;5039304;28;20274;-68
2022/09/15 05:21:39;;;;;;;0.93;0.88;;;22.30;83.30;;;;;;5056623;28;20226;-68
2022/09/15 05:24:05;;;;;;;1.00;1.00;;;22.30;83.30;;;;;;5040570;28;20203;-68
2022/09/15 05:26:31;;;;;;;3.13;0.82;;;22.30;83.50;;;;;;5054670;28;20187;-68
2022/09/15 05:28:57;;;;;;;1.75;0.70;;;22.30;83.60;;;;;;5040244;28;20194;-68
2022/09/15 05:31:30;;;;;;;3.17;0.90;;;22.30;83.80;;;;;;5039121;28;20249;-68
2022/09/15 05:33:58;;;;;;;3.72;0.98;;;22.30;83.80;;;;;;5040603;28;20190;-68
2022/09/15 05:36:24;;;;;;;1.60;1.05;;;22.30;83.80;;;;;;5038732;28;20241;-69
2022/09/15 05:38:58;;;;;;;1.50;1.02;;;22.30;83.90;;;;;;5039452;28;20187;-68
2022/09/15 05:41:25;;;;;;;1.00;1.00;;;22.20;83.80;;;;;;5040306;28;20226;-68
2022/09/15 05:43:55;;;;;;;1.33;0.80;;;22.20;83.80;;;;;;5038837;28;20235;-68
2022/09/15 05:46:24;;;;;;;2.30;0.82;;;22.30;83.90;;;;;;5038627;28;20181;-68
2022/09/15 05:48:53;;;;;;;0.70;0.70;;;22.20;83.80;;;;;;5056493;28;20188;-69
2022/09/15 05:51:19;;;;;;;0.98;0.70;;;22.30;83.80;;;;;;5039071;28;20207;-68
2022/09/15 05:53:45;;;;;;;1.27;1.17;;;22.20;83.70;;;;;;5039368;28;20201;-68
2022/09/15 05:56:14;;;;;;;2.30;1.15;;;22.20;83.60;;;;;;5038847;28;20286;-68
2022/09/15 05:58:42;;;;;;;0.75;0.70;;;22.20;83.60;;;;;;5022801;28;20191;-68
2022/09/15 06:01:28;;;;;;;0.98;0.88;;;22.20;83.60;;;;;;5039892;28;20211;-68
2022/09/15 06:03:56;;;;;;;1.27;0.68;;;22.20;83.60;;;;;;5040028;28;20274;-69
2022/09/15 06:06:24;;;;;;;0.95;0.75;;;22.20;83.50;;;;;;5025589;28;20192;-68
2022/09/15 06:08:54;;;;;;;1.67;1.00;;;22.20;83.50;;;;;;5042336;28;20278;-68
2022/09/15 06:11:27;;;;;;;1.05;0.70;;;22.20;83.50;;;;;;5038674;28;20247;-68
2022/09/15 06:13:53;;;;;;;1.90;1.15;;;22.20;83.50;;;;;;5054409;28;20282;-68
2022/09/15 06:16:22;;;;;;;1.15;1.05;;;22.20;83.50;;;;;;5054310;28;20183;-68
2022/09/15 06:18:51;;;;;;;1.25;0.70;;;22.20;83.40;;;;;;5021441;28;20203;-68
2022/09/15 06:21:23;;;;;;;1.23;1.02;;;22.30;83.50;;;;;;5023290;28;20214;-68
2022/09/15 06:23:54;;;;;;;1.48;0.98;;;22.20;83.40;;;;;;5020667;28;20232;-68
2022/09/15 06:26:20;;;;;;;1.35;0.90;;;22.20;83.40;;;;;;5036875;28;20191;-68
2022/09/15 06:28:58;;;;;;;0.63;0.63;;;22.20;83.40;;;;;;5037147;28;20179;-68
2022/09/15 06:31:26;;;;;;;1.48;0.73;;;22.20;83.40;;;;;;5036884;28;20215;-68
2022/09/15 06:33:54;;;;;;;1.55;0.98;;;22.20;83.50;;;;;;5036532;28;20643;-68
2022/09/15 06:36:25;;;;;;;1.08;0.93;;;22.20;83.50;;;;;;5036960;28;20191;-68
2022/09/15 06:38:51;;;;;;;1.42;0.93;;;22.20;83.50;;;;;;5037441;28;20195;-68
2022/09/15 06:41:17;;;;;;;1.73;0.80;;;22.30;83.50;;;;;;5039443;28;20229;-68
2022/09/15 06:43:44;;;;;;;2.25;0.90;;;22.20;83.40;;;;;;5054580;28;20226;-68
2022/09/15 06:46:20;;;;;;;2.10;1.15;;;22.20;83.40;;;;;;5038630;28;20194;-68
2022/09/15 06:48:46;;;;;;;1.95;1.05;;;22.20;83.50;;;;;;5055079;28;20183;-68
2022/09/15 06:51:13;;;;;;;1.45;0.90;;;22.20;84.20;;;;;;5038724;28;20249;-68
2022/09/15 06:53:39;;;;;;;1.08;0.82;;;22.20;83.40;;;;;;5038473;28;20647;-68
2022/09/15 06:56:09;;;;;;;1.55;1.10;;;22.20;83.40;;;;;;5038204;28;20191;-68
2022/09/15 06:58:37;;;;;;;0.85;0.70;;;22.20;83.40;;;;;;5038129;28;20195;-68
2022/09/15 07:01:11;;;;;;;1.35;0.90;;;22.20;83.50;;;;;;5037886;28;20199;-68
2022/09/15 07:03:40;;;;;;;1.77;0.90;;;22.20;83.40;;;;;;5039553;28;20211;-68
2022/09/15 07:06:08;;;;;;;0.82;0.80;;;22.20;83.30;;;;;;5021601;28;20600;-68
2022/09/15 07:08:33;;;;;;;2.38;1.10;;;22.20;83.40;;;;;;5037923;28;20191;-68
2022/09/15 07:10:59;;;;;;;0.75;0.75;;;22.30;83.60;;;;;;5038432;28;20213;-68
2022/09/15 07:13:25;;;;;;;0.93;0.90;;;22.30;83.50;;;;;;5038024;28;20226;-68
2022/09/15 07:15:58;;;;;;;0.95;0.80;;;22.30;83.70;;;;;;5038417;28;20274;-68
2022/09/15 07:18:25;;;;;;;1.67;1.10;;;22.20;83.70;;;;;;5051066;28;20401;-68
2022/09/15 07:20:52;;;;;;;1.45;0.95;;;22.30;83.80;;;;;;5019124;28;20269;-68
2022/09/15 07:23:18;;;;;;;1.40;1.08;;;22.20;83.40;;;;;;5001074;28;20211;-67
2022/09/15 07:25:44;;;;;;;1.13;1.00;;;22.30;83.60;;;;;;5034461;28;20262;-68
2022/09/15 07:28:14;;;;;;;1.33;0.82;;;22.30;83.40;;;;;;5001960;28;20188;-68
2022/09/15 07:30:41;;;;;;;1.17;1.00;;;22.30;83.60;;;;;;5018241;28;20204;-68
2022/09/15 07:33:10;;;;;;;1.60;1.13;;;22.30;83.60;;;;;;5018066;28;20282;-68
2022/09/15 07:35:41;;;;;;;0.93;0.90;;;22.30;83.70;;;;;;5018679;28;20188;-67
2022/09/15 07:38:07;;;;;;;0.90;0.82;;;22.30;83.90;;;;;;5018289;28;20191;-68
2022/09/15 07:40:33;;;;;;;1.00;0.75;;;22.30;83.60;;;;;;5002427;28;20212;-68
2022/09/15 07:42:59;;;;;;;1.13;0.70;;;22.30;83.80;;;;;;5002223;28;20204;-68
2022/09/15 07:45:25;;;;;;;1.63;0.70;;;22.30;83.70;;;;;;5018310;28;20257;-68
2022/09/15 07:47:50;;;;;;;1.13;0.70;;;22.30;83.70;;;;;;5017917;28;20188;-68
2022/09/15 07:50:16;;;;;;;1.08;0.90;;;22.30;83.80;;;;;;5019128;28;20622;-68
2022/09/15 07:52:42;;;;;;;0.80;0.70;;;22.30;83.70;;;;;;5034475;28;20204;-68
2022/09/15 07:55:08;;;;;;;1.17;0.90;;;22.30;83.70;;;;;;5018461;28;20192;-68
2022/09/15 07:57:34;;;;;;;0.80;0.77;;;22.30;83.70;;;;;;5018034;28;20357;-68
2022/09/15 08:00:01;;;;;;;1.60;0.70;;;22.20;83.50;;;;;;5018208;28;20275;-68
2022/09/15 08:02:26;;;;;;;1.35;0.90;;;22.30;83.70;;;;;;5017955;28;20212;-68
2022/09/15 08:04:52;;;;;;;1.52;0.90;;;22.30;83.70;;;;;;5017708;28;20682;-68
2022/09/15 08:07:18;;;;;;;0.95;0.80;;;22.30;83.60;;;;;;5018256;28;20185;-67
2022/09/15 08:09:44;;;;;;;2.05;1.00;;;22.30;83.90;;;;;;5034123;28;20179;-68
2022/09/15 08:12:09;;;;;;;1.10;0.85;;;22.30;83.70;;;;;;5037362;28;20297;-68
2022/09/15 08:14:35;;;;;;;1.42;0.90;;;22.30;83.70;;;;;;5037946;28;20192;-68
2022/09/15 08:17:03;;;;;;;2.88;0.80;;;22.30;83.70;;;;;;5037580;28;20194;-68
2022/09/15 08:19:31;;;;;;;1.45;1.00;;;22.30;83.60;;;;;;5071337;28;20180;-68
2022/09/15 08:21:58;;;;;;;0.70;0.70;;;22.30;83.70;;;;;;5023211;28;20208;-67
2022/09/15 08:24:24;;;;;;;1.92;0.82;;;22.30;83.50;;;;;;5037824;28;20405;-68
2022/09/15 08:26:51;;;;;;;0.70;0.70;;;22.30;83.40;;;;;;5038201;28;20172;-68
2022/09/15 08:29:18;;;;;;;3.00;0.85;;;22.30;83.40;;;;;;5037983;28;20184;-68
2022/09/15 08:31:44;;;;;;;0.80;0.80;;;22.30;83.40;;;;;;5038167;28;20208;-68
2022/09/15 08:34:13;;;;;;;1.35;0.90;;;22.30;83.20;;;;;;5038195;28;20191;-68
2022/09/15 08:36:39;;;;;;;1.95;1.00;;;22.30;83.50;;;;;;5038738;28;20290;-68
2022/09/15 08:39:05;;;;;;;1.50;0.80;;;22.40;83.50;;;;;;5038187;28;20192;-68
2022/09/15 08:41:42;;;;;;;1.13;0.88;;;22.30;83.30;;;;;;5037829;28;20212;-68
2022/09/15 08:44:51;;;;;;;1.80;0.93;;;22.30;83.20;;;;;;5037770;28;20212;-68
2022/09/15 08:47:36;;;;;;;1.73;0.73;;;22.40;83.30;;;;;;5038361;28;20187;-68
2022/09/15 08:50:29;;;;;;;2.38;0.90;;;22.30;83.20;;;;;;5038285;28;20188;-68
2022/09/15 08:53:26;;;;;;;0.90;0.90;;;22.30;83.30;;;;;;5038159;28;20184;-68
2022/09/15 08:55:58;;;;;;;1.67;0.73;;;22.30;83.20;;;;;;5021128;28;20196;-68
2022/09/15 08:58:36;;;;;;;1.42;0.90;;;22.30;83.20;;;;;;5037885;28;20192;-68
2022/09/15 09:01:41;;;;;;;1.40;0.68;;;22.30;83.40;;;;;;5037804;28;20218;-69
2022/09/15 09:04:40;;;;;;;1.67;0.80;;;22.30;83.20;;;;;;5037586;28;20212;-68
2022/09/15 09:07:21;;;;;;;0.80;0.80;;;22.30;83.20;;;;;;5054492;28;20192;-68
2022/09/15 09:10:14;;;;;;;1.40;1.00;;;22.40;83.30;;;;;;5039666;28;20188;-68
2022/09/15 09:13:18;;;;;;;1.85;0.70;;;22.30;83.20;;;;;;5037178;28;20226;-68
2022/09/15 09:15:59;;;;;;;1.13;0.90;;;22.30;83.20;;;;;;5037809;28;20407;-68
2022/09/15 09:18:45;;;;;;;0.80;0.80;;;22.30;83.30;;;;;;5020798;28;20193;-68
2022/09/15 09:21:11;;;;;;;0.93;0.60;;;22.30;83.20;;;;;;5054672;28;20231;-68
2022/09/15 09:23:50;;;;;;;1.40;0.90;;;22.30;83.00;;;;;;5053812;28;20223;-67
2022/09/15 09:26:16;;;;;;;0.70;0.70;;;22.30;83.00;;;;;;5037096;28;20188;-68
2022/09/15 09:28:56;;;;;;;1.23;0.57;;;22.30;83.00;;;;;;5037269;28;20180;-68
2022/09/15 09:31:25;;;;;;;2.13;0.80;;;22.40;83.00;;;;;;5037644;28;20275;-68
2022/09/15 09:34:12;;;;;;;0.80;0.80;;;22.30;83.00;;;;;;5037320;28;20176;-68
2022/09/15 09:36:38;;;;;;;0.95;0.70;;;22.30;82.90;;;;;;5037720;28;20187;-68
2022/09/15 09:39:04;;;;;;;0.70;0.68;;;22.30;82.90;;;;;;5037181;28;20195;-68
2022/09/15 09:41:35;;;;;;;2.45;0.70;;;22.30;83.00;;;;;;5037208;28;20219;-68
2022/09/15 09:44:09;;;;;;;0.85;0.70;;;22.30;82.90;;;;;;5021410;28;20212;-68
2022/09/15 09:46:34;;;;;;;1.08;0.90;;;22.30;83.00;;;;;;5019840;28;20216;-68
2022/09/15 09:49:22;;;;;;;0.80;0.80;;;22.30;83.00;;;;;;5037177;28;20195;-68
2022/09/15 09:51:51;;;;;;;1.00;0.90;;;22.30;83.00;;;;;;5034583;28;20676;-68
2022/09/15 09:54:20;;;;;;;1.65;0.80;;;22.30;83.10;;;;;;5033310;28;20199;-68
2022/09/15 09:56:51;;;;;;;0.75;0.63;;;22.30;83.10;;;;;;5038766;28;20214;-69
2022/09/15 09:59:41;;;;;;;1.40;0.70;;;22.40;83.40;;;;;;5071677;28;20237;-68
2022/09/15 10:02:09;;;;;;;0.90;0.90;;;22.30;83.10;;;;;;5038748;28;20209;-68
2022/09/15 10:04:45;;;;;;;1.05;0.50;;;22.30;83.10;;;;;;5022002;28;20675;-69
2022/09/15 10:07:14;;;;;;;0.70;0.70;;;22.30;83.90;;;;;;5071642;28;20175;-69
2022/09/15 10:09:53;;;;;;;1.00;0.90;;;22.30;83.20;;;;;;5072918;28;20192;-68
2022/09/15 10:12:25;;;;;;;0.60;0.60;;;22.30;83.30;;;;;;5072762;28;20207;-68
2022/09/15 10:14:56;;;;;;;1.60;1.30;;;22.30;83.10;;;;;;5041656;28;20183;-68
2022/09/15 10:17:39;;;;;;;2.40;1.52;;;22.30;83.20;;;;;;5059974;28;20287;-68
2022/09/15 10:20:31;;;;;;;2.33;1.35;;;22.30;83.20;;;;;;5019866;28;20183;-68
2022/09/15 10:23:15;;;;;;;2.10;1.55;;;22.30;83.20;;;;;;5039293;28;20211;-68
2022/09/15 10:25:42;;;;;;;2.10;1.48;;;22.30;83.00;;;;;;5038247;28;20190;-68
2022/09/15 10:28:07;;;;;;;1.45;1.35;;;22.30;83.00;;;;;;5071572;28;20269;-68
2022/09/15 10:30:35;;;;;;;2.25;1.65;;;22.40;83.00;;;;;;5038332;28;20251;-68
2022/09/15 10:33:26;;;;;;;2.92;1.98;;;22.30;82.90;;;;;;5068180;28;20180;-68
2022/09/15 10:35:58;;;;;;;2.00;1.50;;;22.40;83.00;;;;;;5035834;28;20183;-68
2022/09/15 10:38:40;;;;;;;2.50;1.60;;;22.30;82.80;;;;;;5036168;28;20199;-68
2022/09/15 10:41:29;;;;;;;1.95;1.23;;;22.30;83.10;;;;;;5052154;28;20210;-68
2022/09/15 10:44:25;;;;;;;2.35;1.30;;;22.30;83.20;;;;;;5052284;28;20199;-68
2022/09/15 10:47:54;;;;;;;2.42;1.40;;;22.40;82.90;;;;;;5035961;28;20233;-68
2022/09/15 10:50:47;;;;;;;1.80;1.33;;;22.40;83.00;;;;;;5031887;28;20194;-69
2022/09/15 10:53:18;;;;;;;3.45;1.77;;;22.40;83.30;;;;;;5054155;28;20249;-68
2022/09/15 10:56:33;;;;;;;1.85;1.70;;;22.40;83.20;;;;;;5038333;28;20168;-69
2022/09/15 10:59:35;;;;;;;1.25;1.15;;;22.40;83.10;;;;;;5034660;28;20336;-68
2022/09/15 11:02:36;;;;;;;2.47;1.33;;;22.40;83.30;;;;;;5036704;28;20207;-69
2022/09/15 11:05:35;;;;;;;1.58;1.25;;;22.40;83.30;;;;;;5037541;28;20225;-68
2022/09/15 11:08:51;;;;;;;2.28;1.52;;;22.40;83.40;;;;;;5038742;28;20175;-68
2022/09/15 11:11:53;;;;;;;1.50;1.40;;;22.40;83.10;;;;;;5035597;28;20698;-68
2022/09/15 11:14:28;;;;;;;2.17;1.60;;;22.40;83.30;;;;;;5019932;28;20186;-68
2022/09/15 11:17:13;;;;;;;1.65;1.48;;;22.40;83.50;;;;;;5035486;28;20257;-68
2022/09/15 11:19:58;;;;;;;3.25;1.60;;;22.40;83.40;;;;;;5004339;28;20286;-69
2022/09/15 11:22:37;;;;;;;1.63;1.40;;;22.40;83.40;;;;;;5049523;28;20206;-69
2022/09/15 11:25:21;;;;;;;1.70;1.23;;;22.40;83.30;;;;;;5055849;28;20232;-68
2022/09/15 11:28:16;;;;;;;1.85;1.60;;;22.40;83.30;;;;;;5058139;28;20222;-68
2022/09/15 11:31:00;;;;;;;4.03;1.38;;;22.40;83.70;;;;;;5072317;28;20214;-68
2022/09/15 11:33:52;;;;;;;1.42;1.33;;;22.40;83.50;;;;;;5057358;28;20220;-68
2022/09/15 11:36:35;;;;;;;2.83;1.45;;;22.40;83.40;;;;;;5074838;28;20231;-69
2022/09/15 11:39:23;;;;;;;1.33;1.23;;;22.40;83.40;;;;;;5052812;28;20273;-68
2022/09/15 11:42:06;;;;;;;1.52;1.20;;;22.40;83.60;;;;;;5029267;28;20218;-68
2022/09/15 11:44:40;;;;;;;1.27;1.10;;;22.40;83.70;;;;;;5018433;28;20213;-68
2022/09/15 11:47:15;;;;;;;2.40;1.30;;;22.40;83.80;;;;;;5041900;28;20181;-69
2022/09/15 11:50:15;;;;;;;1.55;1.25;;;22.30;83.80;;;;;;5040183;28;20189;-68
2022/09/15 11:52:58;;;;;;;1.40;1.30;;;22.40;83.60;;;;;;5045400;28;20195;-68
2022/09/15 11:55:40;;;;;;;1.80;1.48;;;22.40;83.70;;;;;;5050879;28;20189;-68
2022/09/15 11:58:28;;;;;;;1.40;1.20;;;22.30;83.80;;;;;;5052815;28;20179;-68
2022/09/15 12:01:09;;;;;;;1.38;1.17;;;22.40;84.20;;;;;;5053717;28;20304;-68
2022/09/15 12:03:49;;;;;;;1.88;1.50;;;22.40;83.80;;;;;;5052749;28;20213;-68
2022/09/15 12:06:29;;;;;;;2.13;1.30;;;22.40;84.00;;;;;;5044207;28;20296;-69
2022/09/15 12:09:02;;;;;;;1.52;1.33;;;22.30;83.90;;;;;;5065245;28;20200;-68
2022/09/15 12:11:34;;;;;;;2.20;1.30;;;22.40;83.80;;;;;;5050341;28;20284;-68
2022/09/15 12:14:03;;;;;;;1.48;1.30;;;22.40;83.90;;;;;;5040488;28;20191;-69
2022/09/15 12:16:31;;;;;;;1.52;1.27;;;22.40;84.20;;;;;;5038570;28;20187;-68
2022/09/15 12:19:18;;;;;;;1.60;1.50;;;22.40;83.70;;;;;;5040038;28;20281;-68
2022/09/15 12:21:55;;;;;;;1.40;1.30;;;22.40;84.00;;;;;;5073822;28;20219;-68
2022/09/15 12:24:24;;;;;;;1.65;1.52;;;22.40;84.30;;;;;;5039516;28;20280;-68
2022/09/15 12:26:50;;;;;;;1.55;1.20;;;22.40;84.20;;;;;;5073361;28;20183;-68
2022/09/15 12:29:25;;;;;;;1.30;1.20;;;22.40;83.90;;;;;;5040741;28;20191;-68
2022/09/15 12:32:19;;;;;;;1.33;1.20;;;22.40;84.30;;;;;;5072543;28;20209;-69
2022/09/15 12:35:17;;;;;;;1.60;1.20;;;22.40;84.10;;;;;;5072492;28;20749;-68
2022/09/15 12:37:53;;;;;;;1.67;1.30;;;22.40;84.30;;;;;;5038607;28;20261;-68
2022/09/15 12:40:37;;;;;;;1.10;1.02;;;22.40;84.50;;;;;;5038762;28;20183;-68
2022/09/15 12:43:12;;;;;;;1.20;1.10;;;22.40;84.70;;;;;;5022535;28;20241;-68
2022/09/15 12:45:41;;;;;;;1.77;1.27;;;22.40;84.30;;;;;;5038361;28;20187;-68
2022/09/15 12:48:19;;;;;;;3.22;1.27;;;22.40;84.40;;;;;;5039570;28;20179;-68
2022/09/15 12:51:09;;;;;;;1.85;1.00;;;22.40;84.30;;;;;;5038952;28;20264;-68
2022/09/15 12:53:56;;;;;;;1.30;1.20;;;22.40;84.20;;;;;;5039104;28;20207;-68
2022/09/15 12:56:30;;;;;;;1.42;1.30;;;22.40;84.30;;;;;;5038921;28;20191;-68
2022/09/15 12:59:03;;;;;;;1.75;1.30;;;22.40;84.30;;;;;;5055529;28;20180;-68
2022/09/15 13:01:49;;;;;;;1.30;1.20;;;22.40;84.60;;;;;;5038770;28;20253;-68
2022/09/15 13:04:40;;;;;;;1.50;1.40;;;22.40;84.90;;;;;;5038922;28;20410;-68
2022/09/15 13:07:14;;;;;;;1.33;1.00;;;22.30;84.40;;;;;;5039138;28;20199;-69
2022/09/15 13:09:58;;;;;;;1.20;1.10;;;22.30;84.00;;;;;;5039087;28;20190;-68
2022/09/15 13:12:35;;;;;;;1.30;1.20;;;22.40;84.00;;;;;;5038803;28;20210;-68
2022/09/15 13:15:12;;;;;;;1.10;1.00;;;22.30;83.80;;;;;;5038589;28;20191;-68
2022/09/15 13:17:45;;;;;;;1.25;1.15;;;22.30;83.70;;;;;;5036440;28;20191;-68
2022/09/15 13:20:22;;;;;;;1.23;1.05;;;22.30;83.40;;;;;;5038762;28;20187;-69
2022/09/15 13:22:53;;;;;;;1.08;1.00;;;22.30;83.30;;;;;;5038203;28;20206;-68
2022/09/15 13:25:27;;;;;;;0.90;0.90;;;22.30;83.20;;;;;;5038550;28;20183;-68
2022/09/15 13:28:00;;;;;;;1.40;0.95;;;22.30;83.20;;;;;;5039038;28;20243;-68
2022/09/15 13:31:04;;;;;;;1.15;1.00;;;22.40;83.30;;;;;;5035279;28;20192;-69